createdAt,value
2019-04-25T00:02:30.889Z,54.20
2019-04-25T00:05:03.660Z,54.20
2019-04-25T00:07:35.462Z,54.12
2019-04-25T00:10:07.418Z,54.11
2019-04-25T00:12:39.447Z,54.12
2019-04-25T00:15:11.895Z,54.12
2019-04-25T00:17:44.729Z,54.30
2019-04-25T00:20:17.955Z,54.51
2019-04-25T00:22:54.029Z,54.83
2019-04-25T00:25:27.466Z,55.14
2019-04-25T00:27:59.144Z,54.80
2019-04-25T00:30:32.625Z,55.10
2019-04-25T00:33:04.281Z,56.13
2019-04-25T00:35:36.103Z,56.13
2019-04-25T00:38:07.903Z,56.56
2019-04-25T00:40:39.666Z,57.38
2019-04-25T00:43:11.492Z,57.76
2019-04-25T00:45:44.488Z,58.37
2019-04-25T00:48:16.789Z,58.72
2019-04-25T00:50:48.606Z,59.18
2019-04-25T00:53:21.216Z,60.00
2019-04-25T00:55:53.864Z,60.57
2019-04-25T00:58:33.401Z,61.49
2019-04-25T01:01:23.270Z,62.09
2019-04-25T01:03:55.097Z,59.97
2019-04-25T01:06:26.861Z,59.09
2019-04-25T01:08:58.531Z,60.23
2019-04-25T01:11:31.407Z,61.61
2019-04-25T01:14:03.131Z,63.15
2019-04-25T01:16:36.096Z,63.98
2019-04-25T01:19:07.899Z,64.07
2019-04-25T01:21:39.658Z,64.38
2019-04-25T01:24:12.055Z,64.74
2019-04-25T01:26:43.998Z,65.01
2019-04-25T01:29:16.661Z,65.26
2019-04-25T01:31:48.365Z,64.38
2019-04-25T01:34:21.823Z,63.20
2019-04-25T01:36:55.871Z,63.83
2019-04-25T01:39:45.604Z,64.11
2019-04-25T01:42:18.917Z,64.63
2019-04-25T01:44:53.860Z,64.85
2019-04-25T01:47:26.665Z,63.06
2019-04-25T01:50:00.267Z,61.77
2019-04-25T01:52:33.467Z,61.34
2019-04-25T01:55:07.490Z,62.65
2019-04-25T01:57:39.210Z,63.03
2019-04-25T02:00:14.045Z,63.46
2019-04-25T02:02:47.318Z,63.30
2019-04-25T02:05:19.105Z,63.92
2019-04-25T02:07:51.513Z,63.88
2019-04-25T02:10:23.759Z,64.48
2019-04-25T02:13:13.559Z,64.78
2019-04-25T02:15:47.519Z,65.30
2019-04-25T02:18:20.600Z,65.79
2019-04-25T02:20:54.245Z,65.99
2019-04-25T02:23:25.722Z,65.95
2019-04-25T02:26:09.708Z,66.01
2019-04-25T02:28:30.939Z,66.37
2019-04-25T02:31:08.149Z,66.50
2019-04-25T02:33:36.162Z,66.66
2019-04-25T02:36:09.732Z,66.45
2019-04-25T02:38:44.240Z,66.28
2019-04-25T02:41:15.065Z,66.24
2019-04-25T02:43:47.357Z,66.09
2019-04-25T02:46:20.585Z,66.08
2019-04-25T02:49:28.848Z,65.22
2019-04-25T02:51:59.072Z,64.70
2019-04-25T02:54:29.902Z,63.96
2019-04-25T02:57:02.056Z,63.38
2019-04-25T02:59:34.576Z,63.28
2019-04-25T03:02:09.224Z,63.10
2019-04-25T03:04:41.191Z,63.09
2019-04-25T03:07:16.803Z,63.18
2019-04-25T03:09:46.335Z,62.93
2019-04-25T03:12:29.109Z,62.15
2019-04-25T03:14:51.481Z,61.58
2019-04-25T03:17:24.965Z,60.73
2019-04-25T03:20:11.539Z,57.90
2019-04-25T03:22:44.432Z,57.90
2019-04-25T03:25:21.188Z,56.47
2019-04-25T03:27:54.221Z,55.54
2019-04-25T03:30:25.931Z,54.39
2019-04-25T03:32:57.591Z,54.26
2019-04-25T03:35:29.213Z,53.92
2019-04-25T03:38:02.396Z,54.03
2019-04-25T03:40:34.166Z,54.17
2019-04-25T03:43:07.184Z,54.38
2019-04-25T03:45:39.009Z,54.41
2019-04-25T03:48:11.563Z,52.81
2019-04-25T03:50:44.174Z,51.02
2019-04-25T03:53:15.998Z,49.74
2019-04-25T03:55:49.430Z,48.54
2019-04-25T03:58:23.985Z,48.41
2019-04-25T04:00:56.619Z,47.96
2019-04-25T04:03:29.568Z,47.25
2019-04-25T04:06:01.770Z,47.12
2019-04-25T04:08:35.731Z,46.96
2019-04-25T04:11:08.948Z,46.45
2019-04-25T04:13:43.902Z,45.22
2019-04-25T04:16:17.371Z,44.02
2019-04-25T04:18:50.654Z,44.19
2019-04-25T04:21:43.213Z,44.19
2019-04-25T04:24:16.817Z,42.27
2019-04-25T04:27:12.025Z,42.67
2019-04-25T04:29:44.957Z,42.37
2019-04-25T04:32:17.363Z,41.08
2019-04-25T04:34:53.748Z,42.38
2019-04-25T04:37:25.701Z,42.98
2019-04-25T04:39:57.588Z,41.57
2019-04-25T04:42:29.236Z,40.83
2019-04-25T04:45:01.023Z,39.58
2019-04-25T04:47:34.820Z,39.16
2019-04-25T04:50:08.941Z,38.08
2019-04-25T04:52:43.915Z,36.81
2019-04-25T04:55:17.363Z,36.43
2019-04-25T04:57:50.592Z,35.27
2019-04-25T05:00:25.443Z,35.61
2019-04-25T05:03:11.188Z,29.22
2019-04-25T05:05:55.061Z,32.07
2019-04-25T05:08:31.363Z,33.61
2019-04-25T05:11:04.250Z,33.18
2019-04-25T05:13:36.048Z,34.16
2019-04-25T05:16:07.745Z,34.95
2019-04-25T05:18:40.128Z,33.19
2019-04-25T05:21:13.283Z,33.84
2019-04-25T05:23:51.465Z,31.73
2019-04-25T05:26:24.917Z,30.03
2019-04-25T05:28:59.028Z,29.92
2019-04-25T05:31:32.272Z,29.27
2019-04-25T05:34:04.262Z,27.84
2019-04-25T05:36:39.830Z,28.32
2019-04-25T05:39:11.917Z,29.82
2019-04-25T05:41:54.097Z,29.24
2019-04-25T05:44:27.458Z,29.29
2019-04-25T05:46:59.230Z,29.59
2019-04-25T05:49:34.228Z,29.57
2019-04-25T05:52:06.335Z,29.55
2019-04-25T05:54:37.991Z,30.36
2019-04-25T05:57:11.070Z,30.90
2019-04-25T05:59:44.197Z,30.59
2019-04-25T06:02:15.931Z,30.65
2019-04-25T06:04:47.674Z,30.55
2019-04-25T06:07:19.451Z,31.07
2019-04-25T06:10:09.147Z,31.21
2019-04-25T06:12:49.835Z,29.28
2019-04-25T06:15:24.032Z,28.81
2019-04-25T06:18:14.008Z,28.89
2019-04-25T06:20:48.901Z,28.23
2019-04-25T06:23:25.656Z,27.70
2019-04-25T06:25:57.710Z,28.25
2019-04-25T06:28:31.042Z,28.07
2019-04-25T06:31:04.447Z,28.06
2019-04-25T06:33:37.972Z,27.18
2019-04-25T06:36:09.700Z,27.10
2019-04-25T06:38:41.553Z,26.47
2019-04-25T06:41:13.576Z,26.16
2019-04-25T06:43:47.771Z,25.85
2019-04-25T06:46:24.824Z,25.61
2019-04-25T06:49:13.428Z,26.59
2019-04-25T06:51:50.832Z,25.22
2019-04-25T06:54:25.230Z,26.26
2019-04-25T06:56:57.507Z,25.57
2019-04-25T06:59:30.071Z,25.24
2019-04-25T07:02:04.079Z,26.94
2019-04-25T07:04:35.657Z,25.24
2019-04-25T07:07:12.150Z,27.05
2019-04-25T07:09:43.635Z,26.04
2019-04-25T07:12:15.340Z,26.82
2019-04-25T07:14:47.116Z,25.32
2019-04-25T07:17:18.934Z,24.64
2019-04-25T07:19:50.733Z,23.54
2019-04-25T07:22:23.924Z,24.20
2019-04-25T07:25:16.548Z,23.38
2019-04-25T07:28:03.464Z,23.38
2019-04-25T07:30:48.425Z,22.38
2019-04-25T07:33:15.403Z,23.85
2019-04-25T07:35:47.127Z,23.38
2019-04-25T07:38:18.855Z,22.66
2019-04-25T07:40:51.844Z,22.42
2019-04-25T07:43:23.509Z,22.53
2019-04-25T07:45:56.775Z,21.69
2019-04-25T07:48:30.012Z,22.48
2019-04-25T07:51:03.625Z,23.11
2019-04-25T07:53:38.200Z,24.76
2019-04-25T07:56:10.091Z,24.41
2019-04-25T07:58:49.541Z,23.77
2019-04-25T08:01:16.014Z,23.10
2019-04-25T08:03:47.902Z,21.65
2019-04-25T08:06:22.613Z,20.61
2019-04-25T08:08:55.217Z,22.36
2019-04-25T08:11:28.424Z,20.96
2019-04-25T08:14:03.400Z,21.49
2019-04-25T08:16:37.172Z,22.19
2019-04-25T08:19:08.880Z,20.54
2019-04-25T08:21:41.411Z,21.10
2019-04-25T08:24:13.965Z,22.34
2019-04-25T08:26:46.132Z,23.07
2019-04-25T08:29:18.205Z,22.15
2019-04-25T08:31:49.980Z,20.49
2019-04-25T08:34:21.720Z,20.64
2019-04-25T08:36:55.252Z,18.91
2019-04-25T08:39:30.308Z,22.38
2019-04-25T08:42:03.449Z,22.46
2019-04-25T08:44:36.971Z,23.11
2019-04-25T08:47:09.735Z,22.77
2019-04-25T08:49:45.750Z,21.66
2019-04-25T08:52:18.116Z,22.57
2019-04-25T08:54:57.497Z,20.87
2019-04-25T08:57:46.158Z,21.41
2019-04-25T09:00:29.183Z,22.28
2019-04-25T09:03:05.982Z,21.85
2019-04-25T09:05:45.976Z,22.20
2019-04-25T09:08:19.254Z,21.71
2019-04-25T09:10:50.989Z,22.56
2019-04-25T09:13:23.406Z,21.98
2019-04-25T09:15:56.622Z,23.62
2019-04-25T09:18:28.368Z,25.18
2019-04-25T09:21:00.214Z,21.12
2019-04-25T09:23:33.386Z,21.93
2019-04-25T09:26:05.714Z,23.12
2019-04-25T09:28:38.858Z,21.19
2019-04-25T09:31:13.943Z,20.34
2019-04-25T09:33:46.795Z,20.94
2019-04-25T09:36:18.883Z,23.08
2019-04-25T09:38:53.857Z,23.94
2019-04-25T09:41:28.033Z,21.58
2019-04-25T09:44:04.514Z,25.05
2019-04-25T09:46:37.935Z,24.38
2019-04-25T09:49:14.046Z,22.15
2019-04-25T09:51:53.513Z,22.64
2019-04-25T09:54:33.391Z,21.80
2019-04-25T09:57:25.971Z,23.73
2019-04-25T09:59:57.691Z,25.83
2019-04-25T10:02:33.083Z,23.70
2019-04-25T10:05:06.802Z,21.98
2019-04-25T10:07:38.848Z,24.37
2019-04-25T10:10:10.800Z,22.99
2019-04-25T10:12:44.120Z,24.27
2019-04-25T10:15:35.390Z,24.68
2019-04-25T10:18:07.220Z,24.63
2019-04-25T10:20:41.680Z,25.46
2019-04-25T10:23:17.810Z,25.58
2019-04-25T10:25:51.778Z,23.66
2019-04-25T10:28:23.885Z,24.77
2019-04-25T10:30:56.637Z,22.64
2019-04-25T10:33:28.436Z,23.77
2019-04-25T10:36:01.316Z,24.58
2019-04-25T10:38:37.307Z,24.13
2019-04-25T10:41:12.026Z,25.76
2019-04-25T10:43:44.051Z,24.57
2019-04-25T10:46:16.597Z,23.85
2019-04-25T10:48:48.181Z,23.86
2019-04-25T10:51:24.038Z,23.45
2019-04-25T10:53:56.890Z,22.92
2019-04-25T10:56:28.616Z,23.31
2019-04-25T10:59:00.833Z,23.88
2019-04-25T11:01:33.869Z,23.37
2019-04-25T11:04:09.339Z,23.92
2019-04-25T11:06:41.890Z,22.98
2019-04-25T11:09:18.054Z,22.49
2019-04-25T11:11:50.439Z,23.31
2019-04-25T11:14:24.204Z,22.91
2019-04-25T11:16:56.469Z,23.21
2019-04-25T11:19:28.238Z,22.78
2019-04-25T11:21:59.894Z,22.96
2019-04-25T11:24:31.593Z,24.29
2019-04-25T11:27:04.364Z,23.43
2019-04-25T11:29:37.736Z,21.95
2019-04-25T11:32:09.629Z,22.40
2019-04-25T11:34:46.065Z,22.92
2019-04-25T11:37:17.159Z,23.00
2019-04-25T11:40:05.828Z,23.66
2019-04-25T11:42:37.620Z,24.49
2019-04-25T11:45:11.229Z,23.27
2019-04-25T11:47:47.134Z,23.78
2019-04-25T11:50:19.045Z,23.32
2019-04-25T11:52:51.279Z,24.61
2019-04-25T11:55:23.885Z,22.74
2019-04-25T11:57:55.902Z,23.62
2019-04-25T12:00:28.669Z,23.06
2019-04-25T12:03:00.624Z,23.43
2019-04-25T12:05:34.198Z,24.09
2019-04-25T12:08:07.133Z,24.10
2019-04-25T12:10:40.646Z,24.16
2019-04-25T12:13:15.385Z,23.97
2019-04-25T12:15:47.886Z,24.54
2019-04-25T12:18:19.657Z,24.84
2019-04-25T12:20:54.864Z,24.88
2019-04-25T12:23:29.026Z,24.71
2019-04-25T12:26:03.854Z,24.19
2019-04-25T12:28:35.708Z,25.61
2019-04-25T12:31:07.335Z,25.53
2019-04-25T12:33:39.012Z,24.86
2019-04-25T12:36:10.678Z,23.28
2019-04-25T12:38:46.051Z,24.33
2019-04-25T12:41:20.346Z,25.42
2019-04-25T12:43:54.558Z,24.64
2019-04-25T12:46:28.406Z,24.74
2019-04-25T12:48:59.825Z,24.60
2019-04-25T12:51:31.494Z,25.13
2019-04-25T12:54:03.929Z,24.64
2019-04-25T12:56:37.886Z,24.82
2019-04-25T12:59:11.106Z,24.10
2019-04-25T13:01:43.779Z,25.27
2019-04-25T13:04:15.334Z,26.67
2019-04-25T13:06:48.866Z,25.03
2019-04-25T13:09:22.213Z,25.93
2019-04-25T13:11:53.978Z,25.57
2019-04-25T13:14:25.674Z,24.34
2019-04-25T13:16:57.337Z,24.29
2019-04-25T13:19:29.528Z,24.48
2019-04-25T13:22:01.178Z,24.07
2019-04-25T13:24:34.362Z,24.29
2019-04-25T13:27:10.825Z,24.87
2019-04-25T13:29:50.751Z,25.05
2019-04-25T13:32:24.099Z,24.67
2019-04-25T13:34:58.689Z,25.06
2019-04-25T13:37:34.092Z,24.94
2019-04-25T13:40:10.047Z,24.79
2019-04-25T13:42:46.739Z,24.71
2019-04-25T13:45:19.023Z,24.27
2019-04-25T13:47:50.701Z,25.39
2019-04-25T13:50:24.818Z,24.93
2019-04-25T13:52:57.288Z,25.79
2019-04-25T13:55:30.074Z,26.71
2019-04-25T13:58:01.847Z,25.12
2019-04-25T14:00:34.917Z,26.79
2019-04-25T14:03:07.170Z,25.78
2019-04-25T14:05:39.066Z,27.01
2019-04-25T14:08:11.255Z,26.31
2019-04-25T14:10:44.337Z,26.11
2019-04-25T14:13:17.373Z,27.13
2019-04-25T14:15:58.330Z,27.00
2019-04-25T14:18:36.761Z,27.18
2019-04-25T14:21:20.652Z,27.56
2019-04-25T14:23:54.106Z,27.04
2019-04-25T14:26:29.118Z,27.38
2019-04-25T14:29:02.176Z,27.62
2019-04-25T14:31:45.591Z,26.87
2019-04-25T14:34:09.015Z,27.26
2019-04-25T14:36:40.876Z,27.21
2019-04-25T14:39:13.423Z,27.57
2019-04-25T14:41:45.070Z,28.04
2019-04-25T14:44:17.259Z,27.62
2019-04-25T14:46:49.754Z,28.12
2019-04-25T14:49:22.823Z,27.48
2019-04-25T14:51:55.162Z,28.29
2019-04-25T14:54:44.450Z,28.69
2019-04-25T14:57:21.855Z,28.85
2019-04-25T14:59:55.247Z,28.37
2019-04-25T15:02:30.130Z,28.53
2019-04-25T15:05:02.625Z,30.11
2019-04-25T15:07:34.156Z,30.11
2019-04-25T15:10:17.930Z,29.77
2019-04-25T15:12:50.020Z,30.43
2019-04-25T15:15:24.455Z,30.55
2019-04-25T15:17:56.526Z,30.88
2019-04-25T15:20:28.315Z,30.99
2019-04-25T15:23:02.270Z,32.11
2019-04-25T15:25:37.049Z,31.84
2019-04-25T15:28:11.584Z,32.03
2019-04-25T15:30:43.965Z,32.30
2019-04-25T15:33:18.918Z,31.94
2019-04-25T15:36:02.270Z,31.98
2019-04-25T15:38:38.121Z,32.49
2019-04-25T15:41:20.415Z,32.80
2019-04-25T15:44:09.792Z,33.28
2019-04-25T15:46:44.358Z,33.44
2019-04-25T15:49:16.101Z,33.32
2019-04-25T15:51:51.776Z,33.68
2019-04-25T15:54:25.311Z,33.03
2019-04-25T15:56:58.726Z,32.22
2019-04-25T15:59:31.096Z,31.95
2019-04-25T16:02:08.413Z,31.86
2019-04-25T16:04:40.844Z,32.65
2019-04-25T16:07:13.116Z,33.04
2019-04-25T16:09:44.804Z,32.83
2019-04-25T16:12:18.333Z,32.79
2019-04-25T16:14:51.432Z,33.30
2019-04-25T16:17:25.193Z,33.15
2019-04-25T16:19:57.926Z,33.36
2019-04-25T16:22:30.274Z,33.15
2019-04-25T16:25:03.794Z,33.37
2019-04-25T16:27:39.057Z,33.80
2019-04-25T16:30:13.101Z,33.79
2019-04-25T16:32:44.941Z,34.02
2019-04-25T16:35:21.432Z,33.97
2019-04-25T16:37:55.077Z,34.06
2019-04-25T16:40:27.553Z,34.33
2019-04-25T16:43:04.649Z,33.57
2019-04-25T16:45:40.170Z,33.10
2019-04-25T16:48:13.122Z,33.04
2019-04-25T16:50:46.483Z,32.71
2019-04-25T16:53:21.063Z,32.38
2019-04-25T16:55:54.079Z,32.70
2019-04-25T16:58:27.229Z,33.45
2019-04-25T17:01:01.878Z,34.54
2019-04-25T17:03:35.339Z,36.79
2019-04-25T17:06:13.296Z,38.25
2019-04-25T17:08:46.955Z,40.39
2019-04-25T17:11:22.705Z,41.72
2019-04-25T17:13:56.194Z,42.12
2019-04-25T17:16:37.461Z,43.02
2019-04-25T17:19:12.277Z,43.60
2019-04-25T17:21:45.094Z,42.98
2019-04-25T17:24:16.842Z,42.94
2019-04-25T17:26:52.796Z,42.65
2019-04-25T17:29:24.609Z,42.47
2019-04-25T17:32:15.928Z,42.19
2019-04-25T17:34:49.796Z,41.98
2019-04-25T17:37:29.027Z,41.77
2019-04-25T17:40:02.460Z,41.72
2019-04-25T17:42:37.193Z,41.52
2019-04-25T17:45:13.196Z,41.30
2019-04-25T17:48:03.574Z,41.56
2019-04-25T17:50:39.709Z,41.60
2019-04-25T17:53:13.129Z,41.89
2019-04-25T17:55:48.468Z,41.85
2019-04-25T17:58:21.810Z,42.00
2019-04-25T18:00:55.442Z,42.21
2019-04-25T18:03:28.751Z,42.42
2019-04-25T18:06:02.788Z,42.66
2019-04-25T18:08:37.496Z,42.77
2019-04-25T18:11:13.692Z,43.06
2019-04-25T18:13:51.898Z,43.22
2019-04-25T18:16:34.651Z,43.35
2019-04-25T18:19:11.020Z,43.47
2019-04-25T18:21:45.006Z,43.60
2019-04-25T18:24:36.926Z,43.36
2019-04-25T18:27:17.263Z,43.33
2019-04-25T18:29:53.393Z,43.63
2019-04-25T18:32:27.494Z,43.74
2019-04-25T18:35:08.458Z,43.54
2019-04-25T18:37:55.575Z,43.59
2019-04-25T18:40:48.949Z,43.59
2019-04-25T18:43:25.333Z,43.80
2019-04-25T18:46:03.490Z,43.88
2019-04-25T18:48:36.889Z,43.91
2019-04-25T18:51:10.710Z,44.11
2019-04-25T18:54:01.485Z,44.45
2019-04-25T18:56:37.619Z,44.79
2019-04-25T18:59:24.946Z,44.72
2019-04-25T19:02:02.653Z,44.97
2019-04-25T19:04:39.569Z,45.27
2019-04-25T19:07:22.616Z,45.56
2019-04-25T19:09:58.766Z,45.51
2019-04-25T19:15:31.685Z,45.81
2019-04-25T19:18:10.039Z,45.94
2019-04-25T19:20:46.297Z,46.13
2019-04-25T19:23:20.689Z,46.27
2019-04-25T19:25:58.754Z,46.32
2019-04-25T19:28:35.994Z,46.62
2019-04-25T19:31:11.084Z,47.02
2019-04-25T19:33:46.023Z,47.35
2019-04-25T19:36:19.298Z,47.46
2019-04-25T19:38:52.487Z,47.50
2019-04-25T19:41:28.998Z,47.59
2019-04-25T19:44:09.047Z,47.57
2019-04-25T19:46:47.193Z,47.57
2019-04-25T19:49:18.951Z,47.60
2019-04-25T19:51:51.941Z,47.20
2019-04-25T19:54:23.669Z,47.33
2019-04-25T19:56:57.968Z,47.89
2019-04-25T19:59:30.547Z,48.27
2019-04-25T20:02:08.153Z,48.27
2019-04-25T20:04:44.732Z,48.11
2019-04-25T20:07:28.291Z,48.43
2019-04-25T20:10:05.914Z,48.31
2019-04-25T20:12:45.393Z,48.59
2019-04-25T20:15:24.749Z,49.11
2019-04-25T20:18:01.568Z,48.89
2019-04-25T20:20:38.409Z,48.70
2019-04-25T20:23:28.538Z,48.72
2019-04-25T20:26:04.888Z,48.86
2019-04-25T20:28:38.559Z,48.92
2019-04-25T20:31:10.790Z,49.09
2019-04-25T20:33:45.590Z,48.99
2019-04-25T20:36:20.918Z,49.01
2019-04-25T20:38:56.466Z,49.24
2019-04-25T20:41:29.983Z,49.35
2019-04-25T20:44:02.696Z,50.44
2019-04-25T20:46:35.708Z,50.55
2019-04-25T20:49:09.043Z,51.19
2019-04-25T20:51:42.421Z,51.35
2019-04-25T20:54:16.203Z,51.73
2019-04-25T20:56:49.126Z,51.86
2019-04-25T20:59:21.492Z,52.19
2019-04-25T21:01:53.580Z,52.64
2019-04-25T21:04:39.932Z,53.03
2019-04-25T21:07:11.756Z,53.36
2019-04-25T21:09:44.339Z,53.23
2019-04-25T21:12:17.075Z,53.19
2019-04-25T21:14:52.730Z,53.40
2019-04-25T21:17:36.900Z,53.56
2019-04-25T21:20:13.579Z,53.82
2019-04-25T21:22:46.306Z,54.10
2019-04-25T21:25:19.723Z,54.17
2019-04-25T21:27:52.528Z,54.47
2019-04-25T21:30:24.540Z,53.23
2019-04-25T21:32:58.364Z,53.57
2019-04-25T21:35:30.749Z,54.28
2019-04-25T21:38:02.536Z,54.61
2019-04-25T21:40:36.026Z,54.68
2019-04-25T21:43:12.254Z,55.02
2019-04-25T21:45:47.511Z,55.18
2019-04-25T21:48:22.103Z,55.65
2019-04-25T21:50:56.986Z,55.82
2019-04-25T21:53:29.121Z,55.99
2019-04-25T21:56:01.903Z,55.94
2019-04-25T21:58:33.820Z,55.73
2019-04-25T22:01:08.304Z,55.77
2019-04-25T22:03:41.582Z,55.75
2019-04-25T22:06:13.546Z,55.90
2019-04-25T22:08:45.281Z,56.04
2019-04-25T22:11:18.503Z,56.27
2019-04-25T22:13:50.592Z,56.60
2019-04-25T22:16:23.771Z,56.94
2019-04-25T22:18:57.589Z,57.31
2019-04-25T22:21:37.840Z,57.79
2019-04-25T22:24:11.174Z,57.64
2019-04-25T22:26:40.774Z,57.73
2019-04-25T22:29:12.824Z,57.66
2019-04-25T22:31:47.217Z,57.79
2019-04-25T22:34:35.885Z,58.19
2019-04-25T22:37:08.321Z,58.48
2019-04-25T22:39:41.885Z,58.49
2019-04-25T22:42:15.177Z,58.85
2019-04-25T22:44:47.938Z,59.11
2019-04-25T22:47:19.693Z,59.11
2019-04-25T22:49:52.403Z,58.94
2019-04-25T22:52:24.593Z,58.63
2019-04-25T22:54:56.427Z,58.03
2019-04-25T22:57:28.274Z,58.28
2019-04-25T23:00:01.590Z,56.18
2019-04-25T23:02:39.412Z,57.89
2019-04-25T23:05:16.176Z,59.30
2019-04-25T23:07:50.866Z,60.24
2019-04-25T23:10:24.901Z,60.70
2019-04-25T23:12:56.778Z,61.28
2019-04-25T23:15:28.526Z,61.06
2019-04-25T23:18:00.550Z,60.38
2019-04-25T23:20:32.257Z,60.25
2019-04-25T23:23:04.767Z,60.37
2019-04-25T23:25:55.522Z,60.62
2019-04-25T23:28:31.315Z,61.06
2019-04-25T23:31:05.373Z,61.65
2019-04-25T23:33:38.067Z,58.25
2019-04-25T23:36:11.090Z,58.44
2019-04-25T23:38:43.012Z,58.61
2019-04-25T23:41:15.693Z,59.01
2019-04-25T23:43:48.765Z,60.14
2019-04-25T23:46:20.546Z,60.38
2019-04-25T23:48:52.198Z,60.15
2019-04-25T23:51:23.922Z,60.65
2019-04-25T23:53:55.967Z,59.63
2019-04-25T23:56:27.713Z,59.51
2019-04-25T23:58:59.652Z,59.78
